sensor_id;sensor_type;location;lat;lon;timestamp;P1;durP1;ratioP1;P2;durP2;ratioP2
14698;SDS011;7439;50.804;4.602;2023-12-20T00:01:27;126.70;;;121.77;;
14698;SDS011;7439;50.804;4.602;2023-12-20T00:03:54;119.40;;;114.83;;
14698;SDS011;7439;50.804;4.602;2023-12-20T00:06:22;111.43;;;107.17;;
14698;SDS011;7439;50.804;4.602;2023-12-20T00:08:51;120.07;;;115.57;;
14698;SDS011;7439;50.804;4.602;2023-12-20T00:11:18;115.20;;;110.83;;
14698;SDS011;7439;50.804;4.602;2023-12-20T00:13:46;109.37;;;105.17;;
14698;SDS011;7439;50.804;4.602;2023-12-20T00:16:14;115.47;;;110.90;;
14698;SDS011;7439;50.804;4.602;2023-12-20T00:18:42;113.77;;;109.33;;
14698;SDS011;7439;50.804;4.602;2023-12-20T00:21:09;113.77;;;109.47;;
14698;SDS011;7439;50.804;4.602;2023-12-20T00:23:37;109.30;;;105.20;;
14698;SDS011;7439;50.804;4.602;2023-12-20T00:26:04;107.97;;;103.87;;
14698;SDS011;7439;50.804;4.602;2023-12-20T00:28:31;107.00;;;103.07;;
14698;SDS011;7439;50.804;4.602;2023-12-20T00:30:59;111.23;;;107.00;;
14698;SDS011;7439;50.804;4.602;2023-12-20T00:33:28;112.93;;;108.60;;
14698;SDS011;7439;50.804;4.602;2023-12-20T00:35:55;139.67;;;134.57;;
14698;SDS011;7439;50.804;4.602;2023-12-20T00:38:23;142.63;;;137.47;;
14698;SDS011;7439;50.804;4.602;2023-12-20T00:40:50;146.27;;;140.77;;
14698;SDS011;7439;50.804;4.602;2023-12-20T00:43:18;134.43;;;129.43;;
14698;SDS011;7439;50.804;4.602;2023-12-20T00:45:45;137.30;;;132.20;;
14698;SDS011;7439;50.804;4.602;2023-12-20T00:48:13;139.30;;;134.10;;
14698;SDS011;7439;50.804;4.602;2023-12-20T00:50:41;147.10;;;141.40;;
14698;SDS011;7439;50.804;4.602;2023-12-20T00:53:09;141.73;;;136.43;;
14698;SDS011;7439;50.804;4.602;2023-12-20T00:55:36;134.43;;;129.43;;
14698;SDS011;7439;50.804;4.602;2023-12-20T00:58:04;138.23;;;133.13;;
14698;SDS011;7439;50.804;4.602;2023-12-20T01:00:31;137.47;;;132.27;;
14698;SDS011;7439;50.804;4.602;2023-12-20T01:02:58;129.43;;;124.53;;
14698;SDS011;7439;50.804;4.602;2023-12-20T01:05:26;125.80;;;121.17;;
14698;SDS011;7439;50.804;4.602;2023-12-20T01:07:57;138.77;;;133.57;;
14698;SDS011;7439;50.804;4.602;2023-12-20T01:10:25;139.83;;;134.47;;
14698;SDS011;7439;50.804;4.602;2023-12-20T01:12:53;130.60;;;125.80;;
14698;SDS011;7439;50.804;4.602;2023-12-20T01:15:23;123.47;;;118.73;;
14698;SDS011;7439;50.804;4.602;2023-12-20T01:17:53;131.50;;;126.30;;
14698;SDS011;7439;50.804;4.602;2023-12-20T01:20:22;122.73;;;118.03;;
14698;SDS011;7439;50.804;4.602;2023-12-20T01:22:49;117.60;;;113.13;;
14698;SDS011;7439;50.804;4.602;2023-12-20T01:25:18;116.73;;;112.37;;
14698;SDS011;7439;50.804;4.602;2023-12-20T01:27:45;116.80;;;112.43;;
14698;SDS011;7439;50.804;4.602;2023-12-20T01:30:13;116.53;;;112.10;;
14698;SDS011;7439;50.804;4.602;2023-12-20T01:32:40;118.40;;;113.87;;
14698;SDS011;7439;50.804;4.602;2023-12-20T01:35:07;118.57;;;114.00;;
14698;SDS011;7439;50.804;4.602;2023-12-20T01:37:35;119.67;;;114.80;;
14698;SDS011;7439;50.804;4.602;2023-12-20T01:40:02;123.17;;;118.50;;
14698;SDS011;7439;50.804;4.602;2023-12-20T01:42:31;138.70;;;133.57;;
14698;SDS011;7439;50.804;4.602;2023-12-20T01:45:01;135.93;;;130.80;;
14698;SDS011;7439;50.804;4.602;2023-12-20T01:47:29;129.57;;;124.67;;
14698;SDS011;7439;50.804;4.602;2023-12-20T01:49:56;131.37;;;126.47;;
14698;SDS011;7439;50.804;4.602;2023-12-20T01:52:24;133.17;;;127.97;;
14698;SDS011;7439;50.804;4.602;2023-12-20T01:54:59;123.97;;;119.37;;
14698;SDS011;7439;50.804;4.602;2023-12-20T01:57:30;120.93;;;116.33;;
14698;SDS011;7439;50.804;4.602;2023-12-20T01:59:58;125.97;;;121.30;;
14698;SDS011;7439;50.804;4.602;2023-12-20T02:02:28;125.80;;;121.10;;
14698;SDS011;7439;50.804;4.602;2023-12-20T02:04:55;129.17;;;124.33;;
14698;SDS011;7439;50.804;4.602;2023-12-20T02:07:23;131.80;;;126.97;;
14698;SDS011;7439;50.804;4.602;2023-12-20T02:09:50;122.47;;;117.87;;
14698;SDS011;7439;50.804;4.602;2023-12-20T02:21:33;117.47;;;113.00;;
14698;SDS011;7439;50.804;4.602;2023-12-20T02:24:00;119.97;;;115.47;;
14698;SDS011;7439;50.804;4.602;2023-12-20T02:26:31;125.20;;;120.50;;
14698;SDS011;7439;50.804;4.602;2023-12-20T02:28:59;124.40;;;119.67;;
14698;SDS011;7439;50.804;4.602;2023-12-20T02:31:27;126.03;;;121.23;;
14698;SDS011;7439;50.804;4.602;2023-12-20T02:33:54;118.93;;;114.40;;
14698;SDS011;7439;50.804;4.602;2023-12-20T02:36:24;130.13;;;125.10;;
14698;SDS011;7439;50.804;4.602;2023-12-20T02:38:55;124.30;;;119.50;;
14698;SDS011;7439;50.804;4.602;2023-12-20T02:41:22;133.93;;;128.93;;
14698;SDS011;7439;50.804;4.602;2023-12-20T02:43:50;134.13;;;129.13;;
14698;SDS011;7439;50.804;4.602;2023-12-20T02:46:17;129.63;;;124.73;;
14698;SDS011;7439;50.804;4.602;2023-12-20T02:48:45;125.13;;;120.43;;
14698;SDS011;7439;50.804;4.602;2023-12-20T02:51:13;126.53;;;121.70;;
14698;SDS011;7439;50.804;4.602;2023-12-20T02:53:40;125.80;;;121.07;;
14698;SDS011;7439;50.804;4.602;2023-12-20T02:56:09;133.67;;;128.77;;
14698;SDS011;7439;50.804;4.602;2023-12-20T02:58:36;137.37;;;132.17;;
14698;SDS011;7439;50.804;4.602;2023-12-20T03:01:03;137.40;;;132.30;;
14698;SDS011;7439;50.804;4.602;2023-12-20T03:03:31;138.33;;;133.23;;
14698;SDS011;7439;50.804;4.602;2023-12-20T03:05:59;140.00;;;134.63;;
14698;SDS011;7439;50.804;4.602;2023-12-20T03:08:27;137.47;;;132.37;;
14698;SDS011;7439;50.804;4.602;2023-12-20T03:10:54;145.50;;;140.13;;
14698;SDS011;7439;50.804;4.602;2023-12-20T03:13:23;143.27;;;137.77;;
14698;SDS011;7439;50.804;4.602;2023-12-20T03:15:50;137.73;;;132.57;;
14698;SDS011;7439;50.804;4.602;2023-12-20T03:18:17;137.07;;;131.77;;
14698;SDS011;7439;50.804;4.602;2023-12-20T03:20:45;123.27;;;118.67;;
14698;SDS011;7439;50.804;4.602;2023-12-20T03:23:15;115.87;;;111.17;;
14698;SDS011;7439;50.804;4.602;2023-12-20T03:25:45;124.07;;;119.27;;
14698;SDS011;7439;50.804;4.602;2023-12-20T03:28:14;118.63;;;114.13;;
14698;SDS011;7439;50.804;4.602;2023-12-20T03:30:43;122.47;;;117.73;;
14698;SDS011;7439;50.804;4.602;2023-12-20T03:33:10;137.53;;;132.40;;
14698;SDS011;7439;50.804;4.602;2023-12-20T03:35:38;132.83;;;127.80;;
14698;SDS011;7439;50.804;4.602;2023-12-20T03:38:05;131.60;;;126.67;;
14698;SDS011;7439;50.804;4.602;2023-12-20T03:40:32;129.70;;;124.70;;
14698;SDS011;7439;50.804;4.602;2023-12-20T03:43:00;139.03;;;133.87;;
14698;SDS011;7439;50.804;4.602;2023-12-20T03:45:27;126.33;;;121.53;;
14698;SDS011;7439;50.804;4.602;2023-12-20T03:47:58;130.23;;;125.43;;
14698;SDS011;7439;50.804;4.602;2023-12-20T03:50:29;120.90;;;116.13;;
14698;SDS011;7439;50.804;4.602;2023-12-20T03:52:56;102.83;;;98.83;;
14698;SDS011;7439;50.804;4.602;2023-12-20T03:55:24;116.10;;;111.50;;
14698;SDS011;7439;50.804;4.602;2023-12-20T03:57:51;105.47;;;101.17;;
14698;SDS011;7439;50.804;4.602;2023-12-20T04:00:18;119.37;;;114.77;;
14698;SDS011;7439;50.804;4.602;2023-12-20T04:02:46;113.83;;;109.20;;
14698;SDS011;7439;50.804;4.602;2023-12-20T04:05:14;118.93;;;114.43;;
14698;SDS011;7439;50.804;4.602;2023-12-20T04:07:42;119.10;;;114.50;;
14698;SDS011;7439;50.804;4.602;2023-12-20T04:10:09;120.40;;;115.70;;
14698;SDS011;7439;50.804;4.602;2023-12-20T04:12:36;127.67;;;122.87;;
14698;SDS011;7439;50.804;4.602;2023-12-20T04:15:04;132.47;;;127.37;;
14698;SDS011;7439;50.804;4.602;2023-12-20T04:17:34;139.13;;;133.97;;
14698;SDS011;7439;50.804;4.602;2023-12-20T04:20:02;140.07;;;134.57;;
14698;SDS011;7439;50.804;4.602;2023-12-20T04:22:31;139.77;;;134.37;;
14698;SDS011;7439;50.804;4.602;2023-12-20T04:25:01;147.00;;;141.30;;
14698;SDS011;7439;50.804;4.602;2023-12-20T04:27:28;139.47;;;134.23;;
14698;SDS011;7439;50.804;4.602;2023-12-20T04:29:56;145.10;;;139.40;;
14698;SDS011;7439;50.804;4.602;2023-12-20T04:32:24;147.40;;;141.90;;
14698;SDS011;7439;50.804;4.602;2023-12-20T04:34:51;150.07;;;144.53;;
14698;SDS011;7439;50.804;4.602;2023-12-20T04:37:18;153.13;;;147.37;;
14698;SDS011;7439;50.804;4.602;2023-12-20T04:39:47;136.40;;;131.30;;
14698;SDS011;7439;50.804;4.602;2023-12-20T04:42:15;134.77;;;129.80;;
14698;SDS011;7439;50.804;4.602;2023-12-20T04:44:43;134.27;;;128.87;;
14698;SDS011;7439;50.804;4.602;2023-12-20T04:47:10;121.67;;;117.07;;
14698;SDS011;7439;50.804;4.602;2023-12-20T04:49:37;114.17;;;109.57;;
14698;SDS011;7439;50.804;4.602;2023-12-20T04:52:05;115.97;;;111.47;;
14698;SDS011;7439;50.804;4.602;2023-12-20T04:54:33;96.23;;;92.23;;
14698;SDS011;7439;50.804;4.602;2023-12-20T04:57:02;82.87;;;79.53;;
14698;SDS011;7439;50.804;4.602;2023-12-20T04:59:32;77.53;;;74.33;;
14698;SDS011;7439;50.804;4.602;2023-12-20T05:02:02;70.73;;;67.70;;
14698;SDS011;7439;50.804;4.602;2023-12-20T05:04:30;66.53;;;63.73;;
14698;SDS011;7439;50.804;4.602;2023-12-20T05:06:58;61.77;;;59.17;;
14698;SDS011;7439;50.804;4.602;2023-12-20T05:09:33;59.47;;;56.80;;
14698;SDS011;7439;50.804;4.602;2023-12-20T05:12:02;55.47;;;53.10;;
14698;SDS011;7439;50.804;4.602;2023-12-20T05:14:32;57.63;;;55.03;;
14698;SDS011;7439;50.804;4.602;2023-12-20T05:17:03;52.03;;;49.77;;
14698;SDS011;7439;50.804;4.602;2023-12-20T05:19:31;48.03;;;45.83;;
14698;SDS011;7439;50.804;4.602;2023-12-20T05:22:00;45.37;;;43.33;;
14698;SDS011;7439;50.804;4.602;2023-12-20T05:24:27;40.80;;;39.00;;
14698;SDS011;7439;50.804;4.602;2023-12-20T05:26:57;41.60;;;39.80;;
14698;SDS011;7439;50.804;4.602;2023-12-20T05:29:32;39.83;;;38.10;;
14698;SDS011;7439;50.804;4.602;2023-12-20T05:32:03;42.47;;;40.63;;
14698;SDS011;7439;50.804;4.602;2023-12-20T05:34:30;36.00;;;34.40;;
14698;SDS011;7439;50.804;4.602;2023-12-20T05:36:58;38.07;;;36.37;;
14698;SDS011;7439;50.804;4.602;2023-12-20T05:39:29;36.23;;;34.63;;
14698;SDS011;7439;50.804;4.602;2023-12-20T05:41:56;34.40;;;32.87;;
14698;SDS011;7439;50.804;4.602;2023-12-20T05:44:24;33.40;;;31.70;;
14698;SDS011;7439;50.804;4.602;2023-12-20T05:46:53;26.90;;;25.50;;
14698;SDS011;7439;50.804;4.602;2023-12-20T05:49:20;28.23;;;26.80;;
14698;SDS011;7439;50.804;4.602;2023-12-20T05:51:47;28.17;;;26.87;;
14698;SDS011;7439;50.804;4.602;2023-12-20T05:54:16;24.07;;;22.93;;
14698;SDS011;7439;50.804;4.602;2023-12-20T05:56:43;23.50;;;22.30;;
14698;SDS011;7439;50.804;4.602;2023-12-20T05:59:11;26.03;;;24.83;;
14698;SDS011;7439;50.804;4.602;2023-12-20T06:01:39;25.50;;;24.20;;
14698;SDS011;7439;50.804;4.602;2023-12-20T06:04:07;23.50;;;22.33;;
14698;SDS011;7439;50.804;4.602;2023-12-20T06:06:40;26.47;;;25.13;;
14698;SDS011;7439;50.804;4.602;2023-12-20T06:09:07;20.67;;;19.77;;
14698;SDS011;7439;50.804;4.602;2023-12-20T06:11:34;19.77;;;18.70;;
14698;SDS011;7439;50.804;4.602;2023-12-20T06:14:01;20.37;;;19.33;;
14698;SDS011;7439;50.804;4.602;2023-12-20T06:16:28;23.77;;;22.57;;
14698;SDS011;7439;50.804;4.602;2023-12-20T06:18:58;24.73;;;23.37;;
14698;SDS011;7439;50.804;4.602;2023-12-20T06:21:29;23.17;;;21.97;;
14698;SDS011;7439;50.804;4.602;2023-12-20T06:23:58;22.70;;;21.60;;
14698;SDS011;7439;50.804;4.602;2023-12-20T06:26:28;21.23;;;20.13;;
14698;SDS011;7439;50.804;4.602;2023-12-20T06:28:57;21.60;;;20.50;;
14698;SDS011;7439;50.804;4.602;2023-12-20T06:31:25;20.30;;;19.03;;
14698;SDS011;7439;50.804;4.602;2023-12-20T06:33:52;16.50;;;15.43;;
14698;SDS011;7439;50.804;4.602;2023-12-20T06:36:22;15.60;;;14.70;;
14698;SDS011;7439;50.804;4.602;2023-12-20T06:38:54;12.33;;;11.73;;
14698;SDS011;7439;50.804;4.602;2023-12-20T06:41:21;14.20;;;13.30;;
14698;SDS011;7439;50.804;4.602;2023-12-20T06:43:49;14.53;;;13.57;;
14698;SDS011;7439;50.804;4.602;2023-12-20T06:46:18;15.03;;;14.20;;
14698;SDS011;7439;50.804;4.602;2023-12-20T06:48:45;14.10;;;13.40;;
14698;SDS011;7439;50.804;4.602;2023-12-20T06:51:14;14.50;;;13.70;;
14698;SDS011;7439;50.804;4.602;2023-12-20T06:53:41;12.87;;;12.00;;
14698;SDS011;7439;50.804;4.602;2023-12-20T06:56:11;15.67;;;14.63;;
14698;SDS011;7439;50.804;4.602;2023-12-20T06:58:38;16.60;;;15.57;;
14698;SDS011;7439;50.804;4.602;2023-12-20T07:01:06;12.60;;;11.90;;
14698;SDS011;7439;50.804;4.602;2023-12-20T07:03:38;13.83;;;12.97;;
14698;SDS011;7439;50.804;4.602;2023-12-20T07:06:05;14.90;;;13.90;;
14698;SDS011;7439;50.804;4.602;2023-12-20T07:08:33;11.33;;;10.63;;
14698;SDS011;7439;50.804;4.602;2023-12-20T07:11:00;11.43;;;10.20;;
14698;SDS011;7439;50.804;4.602;2023-12-20T07:13:31;9.93;;;9.27;;
14698;SDS011;7439;50.804;4.602;2023-12-20T07:15:59;11.27;;;10.27;;
14698;SDS011;7439;50.804;4.602;2023-12-20T07:18:26;9.43;;;8.53;;
14698;SDS011;7439;50.804;4.602;2023-12-20T07:20:54;6.67;;;6.03;;
14698;SDS011;7439;50.804;4.602;2023-12-20T07:23:21;5.50;;;5.10;;
14698;SDS011;7439;50.804;4.602;2023-12-20T07:25:49;7.17;;;5.57;;
14698;SDS011;7439;50.804;4.602;2023-12-20T07:28:16;5.53;;;4.53;;
14698;SDS011;7439;50.804;4.602;2023-12-20T07:30:45;6.50;;;4.37;;
14698;SDS011;7439;50.804;4.602;2023-12-20T07:33:12;5.93;;;3.50;;
14698;SDS011;7439;50.804;4.602;2023-12-20T07:35:39;3.30;;;3.10;;
14698;SDS011;7439;50.804;4.602;2023-12-20T07:38:07;4.23;;;3.60;;
14698;SDS011;7439;50.804;4.602;2023-12-20T07:40:34;4.17;;;3.20;;
14698;SDS011;7439;50.804;4.602;2023-12-20T07:43:02;4.73;;;4.20;;
14698;SDS011;7439;50.804;4.602;2023-12-20T07:45:29;3.73;;;2.73;;
14698;SDS011;7439;50.804;4.602;2023-12-20T07:48:01;5.50;;;3.53;;
14698;SDS011;7439;50.804;4.602;2023-12-20T07:50:31;2.67;;;2.47;;
14698;SDS011;7439;50.804;4.602;2023-12-20T07:53:04;4.03;;;3.20;;
14698;SDS011;7439;50.804;4.602;2023-12-20T07:55:34;4.10;;;3.00;;
14698;SDS011;7439;50.804;4.602;2023-12-20T07:58:05;6.67;;;3.50;;
14698;SDS011;7439;50.804;4.602;2023-12-20T08:00:32;4.30;;;2.87;;
14698;SDS011;7439;50.804;4.602;2023-12-20T08:03:03;3.30;;;2.30;;
14698;SDS011;7439;50.804;4.602;2023-12-20T08:05:30;4.47;;;2.60;;
14698;SDS011;7439;50.804;4.602;2023-12-20T08:08:01;4.83;;;2.87;;
14698;SDS011;7439;50.804;4.602;2023-12-20T08:10:28;4.10;;;2.53;;
14698;SDS011;7439;50.804;4.602;2023-12-20T08:12:56;3.53;;;2.80;;
14698;SDS011;7439;50.804;4.602;2023-12-20T08:15:23;4.77;;;2.70;;
14698;SDS011;7439;50.804;4.602;2023-12-20T08:17:51;4.30;;;2.40;;
14698;SDS011;7439;50.804;4.602;2023-12-20T08:20:20;5.23;;;2.70;;
14698;SDS011;7439;50.804;4.602;2023-12-20T08:22:47;3.60;;;2.20;;
14698;SDS011;7439;50.804;4.602;2023-12-20T08:25:14;2.97;;;2.43;;
14698;SDS011;7439;50.804;4.602;2023-12-20T08:27:42;2.80;;;2.27;;
14698;SDS011;7439;50.804;4.602;2023-12-20T08:30:09;7.40;;;2.67;;
14698;SDS011;7439;50.804;4.602;2023-12-20T08:32:37;4.57;;;2.63;;
14698;SDS011;7439;50.804;4.602;2023-12-20T08:35:05;5.23;;;2.67;;
14698;SDS011;7439;50.804;4.602;2023-12-20T08:37:34;5.90;;;2.67;;
14698;SDS011;7439;50.804;4.602;2023-12-20T08:40:04;5.03;;;2.53;;
14698;SDS011;7439;50.804;4.602;2023-12-20T08:42:35;3.90;;;2.37;;
14698;SDS011;7439;50.804;4.602;2023-12-20T08:45:02;6.33;;;2.43;;
14698;SDS011;7439;50.804;4.602;2023-12-20T08:47:30;3.10;;;2.50;;
14698;SDS011;7439;50.804;4.602;2023-12-20T08:49:59;8.33;;;3.40;;
14698;SDS011;7439;50.804;4.602;2023-12-20T08:52:27;4.93;;;2.80;;
14698;SDS011;7439;50.804;4.602;2023-12-20T08:54:56;8.13;;;4.70;;
14698;SDS011;7439;50.804;4.602;2023-12-20T08:57:23;6.07;;;5.40;;
14698;SDS011;7439;50.804;4.602;2023-12-20T08:59:51;8.33;;;5.40;;
14698;SDS011;7439;50.804;4.602;2023-12-20T09:02:18;7.70;;;6.90;;
14698;SDS011;7439;50.804;4.602;2023-12-20T09:04:45;7.43;;;5.30;;
14698;SDS011;7439;50.804;4.602;2023-12-20T09:07:22;7.23;;;4.27;;
14698;SDS011;7439;50.804;4.602;2023-12-20T09:09:48;6.77;;;4.30;;
14698;SDS011;7439;50.804;4.602;2023-12-20T09:12:17;9.90;;;5.23;;
14698;SDS011;7439;50.804;4.602;2023-12-20T09:14:45;5.70;;;4.43;;
14698;SDS011;7439;50.804;4.602;2023-12-20T09:17:13;6.40;;;4.93;;
14698;SDS011;7439;50.804;4.602;2023-12-20T09:19:41;7.83;;;5.37;;
14698;SDS011;7439;50.804;4.602;2023-12-20T09:22:08;7.43;;;5.67;;
14698;SDS011;7439;50.804;4.602;2023-12-20T09:24:36;9.90;;;5.97;;
14698;SDS011;7439;50.804;4.602;2023-12-20T09:27:04;9.97;;;6.63;;
14698;SDS011;7439;50.804;4.602;2023-12-20T09:29:33;7.07;;;6.43;;
14698;SDS011;7439;50.804;4.602;2023-12-20T09:32:00;9.23;;;7.03;;
14698;SDS011;7439;50.804;4.602;2023-12-20T09:34:31;7.93;;;5.23;;
14698;SDS011;7439;50.804;4.602;2023-12-20T09:37:05;12.43;;;5.70;;
14698;SDS011;7439;50.804;4.602;2023-12-20T09:39:32;9.50;;;5.90;;
14698;SDS011;7439;50.804;4.602;2023-12-20T09:42:00;8.77;;;6.97;;
14698;SDS011;7439;50.804;4.602;2023-12-20T09:44:32;7.73;;;5.97;;
14698;SDS011;7439;50.804;4.602;2023-12-20T09:47:01;9.63;;;5.40;;
14698;SDS011;7439;50.804;4.602;2023-12-20T09:49:31;8.30;;;6.30;;
14698;SDS011;7439;50.804;4.602;2023-12-20T09:51:59;8.33;;;6.67;;
14698;SDS011;7439;50.804;4.602;2023-12-20T09:54:28;9.17;;;6.37;;
14698;SDS011;7439;50.804;4.602;2023-12-20T09:56:55;11.33;;;6.00;;
14698;SDS011;7439;50.804;4.602;2023-12-20T09:59:23;8.60;;;6.93;;
14698;SDS011;7439;50.804;4.602;2023-12-20T10:01:52;8.83;;;6.40;;
14698;SDS011;7439;50.804;4.602;2023-12-20T10:04:21;10.10;;;5.50;;
14698;SDS011;7439;50.804;4.602;2023-12-20T10:06:48;7.97;;;5.77;;
14698;SDS011;7439;50.804;4.602;2023-12-20T10:09:15;6.40;;;5.30;;
14698;SDS011;7439;50.804;4.602;2023-12-20T10:11:43;5.73;;;4.80;;
14698;SDS011;7439;50.804;4.602;2023-12-20T10:14:11;7.13;;;4.80;;
14698;SDS011;7439;50.804;4.602;2023-12-20T10:16:40;6.33;;;4.10;;
14698;SDS011;7439;50.804;4.602;2023-12-20T10:19:09;8.70;;;4.83;;
14698;SDS011;7439;50.804;4.602;2023-12-20T10:21:36;5.90;;;3.70;;
14698;SDS011;7439;50.804;4.602;2023-12-20T10:24:04;6.33;;;3.97;;
14698;SDS011;7439;50.804;4.602;2023-12-20T10:26:33;6.30;;;4.63;;
14698;SDS011;7439;50.804;4.602;2023-12-20T10:29:01;6.10;;;3.70;;
14698;SDS011;7439;50.804;4.602;2023-12-20T10:31:32;11.60;;;4.83;;
14698;SDS011;7439;50.804;4.602;2023-12-20T10:34:01;6.77;;;4.00;;
14698;SDS011;7439;50.804;4.602;2023-12-20T10:36:35;13.47;;;6.33;;
14698;SDS011;7439;50.804;4.602;2023-12-20T10:39:05;6.50;;;5.90;;
14698;SDS011;7439;50.804;4.602;2023-12-20T10:41:35;7.53;;;6.27;;
14698;SDS011;7439;50.804;4.602;2023-12-20T10:44:06;12.70;;;4.97;;
14698;SDS011;7439;50.804;4.602;2023-12-20T10:46:34;8.50;;;5.00;;
14698;SDS011;7439;50.804;4.602;2023-12-20T10:49:02;6.90;;;4.10;;
14698;SDS011;7439;50.804;4.602;2023-12-20T10:51:34;6.87;;;4.17;;
14698;SDS011;7439;50.804;4.602;2023-12-20T10:54:01;9.73;;;4.27;;
14698;SDS011;7439;50.804;4.602;2023-12-20T10:56:30;6.70;;;4.03;;
14698;SDS011;7439;50.804;4.602;2023-12-20T10:59:04;10.00;;;5.17;;
14698;SDS011;7439;50.804;4.602;2023-12-20T11:01:35;9.77;;;4.83;;
14698;SDS011;7439;50.804;4.602;2023-12-20T11:04:04;9.30;;;4.40;;
14698;SDS011;7439;50.804;4.602;2023-12-20T11:06:35;7.13;;;3.90;;
14698;SDS011;7439;50.804;4.602;2023-12-20T11:09:08;7.10;;;4.20;;
14698;SDS011;7439;50.804;4.602;2023-12-20T11:11:40;7.40;;;4.03;;
14698;SDS011;7439;50.804;4.602;2023-12-20T11:14:12;6.63;;;4.23;;
14698;SDS011;7439;50.804;4.602;2023-12-20T11:16:42;8.30;;;4.43;;
14698;SDS011;7439;50.804;4.602;2023-12-20T11:19:10;7.13;;;3.77;;
14698;SDS011;7439;50.804;4.602;2023-12-20T11:21:41;9.63;;;4.00;;
14698;SDS011;7439;50.804;4.602;2023-12-20T11:24:09;9.10;;;4.40;;
14698;SDS011;7439;50.804;4.602;2023-12-20T11:26:37;6.30;;;3.70;;
14698;SDS011;7439;50.804;4.602;2023-12-20T11:31:50;5.63;;;3.57;;
14698;SDS011;7439;50.804;4.602;2023-12-20T11:34:18;4.07;;;3.47;;
14698;SDS011;7439;50.804;4.602;2023-12-20T11:36:47;7.97;;;3.77;;
14698;SDS011;7439;50.804;4.602;2023-12-20T11:39:18;5.20;;;3.23;;
14698;SDS011;7439;50.804;4.602;2023-12-20T11:41:48;9.10;;;6.13;;
14698;SDS011;7439;50.804;4.602;2023-12-20T11:44:17;7.97;;;7.40;;
14698;SDS011;7439;50.804;4.602;2023-12-20T11:46:45;9.77;;;8.90;;
14698;SDS011;7439;50.804;4.602;2023-12-20T11:49:13;8.03;;;7.43;;
14698;SDS011;7439;50.804;4.602;2023-12-20T11:51:40;9.83;;;8.13;;
14698;SDS011;7439;50.804;4.602;2023-12-20T11:54:10;8.37;;;7.73;;
14698;SDS011;7439;50.804;4.602;2023-12-20T11:56:37;9.10;;;8.47;;
14698;SDS011;7439;50.804;4.602;2023-12-20T11:59:04;12.80;;;12.00;;
14698;SDS011;7439;50.804;4.602;2023-12-20T12:01:32;12.17;;;11.43;;
14698;SDS011;7439;50.804;4.602;2023-12-20T12:04:03;13.83;;;13.03;;
14698;SDS011;7439;50.804;4.602;2023-12-20T12:06:30;15.57;;;14.60;;
14698;SDS011;7439;50.804;4.602;2023-12-20T12:08:59;15.77;;;14.87;;
14698;SDS011;7439;50.804;4.602;2023-12-20T12:11:29;19.40;;;18.30;;
14698;SDS011;7439;50.804;4.602;2023-12-20T12:13:56;16.97;;;16.17;;
14698;SDS011;7439;50.804;4.602;2023-12-20T12:16:23;17.20;;;16.40;;
14698;SDS011;7439;50.804;4.602;2023-12-20T12:18:55;15.23;;;14.43;;
14698;SDS011;7439;50.804;4.602;2023-12-20T12:21:23;17.77;;;16.90;;
14698;SDS011;7439;50.804;4.602;2023-12-20T12:23:50;18.47;;;17.57;;
14698;SDS011;7439;50.804;4.602;2023-12-20T12:26:18;20.43;;;19.23;;
14698;SDS011;7439;50.804;4.602;2023-12-20T12:28:47;24.93;;;23.63;;
14698;SDS011;7439;50.804;4.602;2023-12-20T12:31:14;26.00;;;24.50;;
14698;SDS011;7439;50.804;4.602;2023-12-20T12:33:42;29.10;;;27.63;;
14698;SDS011;7439;50.804;4.602;2023-12-20T12:36:10;30.23;;;28.73;;
14698;SDS011;7439;50.804;4.602;2023-12-20T12:38:37;29.47;;;27.97;;
14698;SDS011;7439;50.804;4.602;2023-12-20T12:41:05;28.53;;;27.13;;
14698;SDS011;7439;50.804;4.602;2023-12-20T12:43:32;26.40;;;25.07;;
14698;SDS011;7439;50.804;4.602;2023-12-20T12:46:01;28.37;;;26.93;;
14698;SDS011;7439;50.804;4.602;2023-12-20T12:48:29;30.67;;;29.07;;
14698;SDS011;7439;50.804;4.602;2023-12-20T12:50:56;30.70;;;29.20;;
14698;SDS011;7439;50.804;4.602;2023-12-20T12:53:24;28.90;;;27.37;;
14698;SDS011;7439;50.804;4.602;2023-12-20T12:55:53;32.43;;;30.83;;
14698;SDS011;7439;50.804;4.602;2023-12-20T12:58:20;34.00;;;32.00;;
14698;SDS011;7439;50.804;4.602;2023-12-20T13:00:50;34.23;;;32.50;;
14698;SDS011;7439;50.804;4.602;2023-12-20T13:03:19;33.47;;;31.77;;
14698;SDS011;7439;50.804;4.602;2023-12-20T13:05:46;32.47;;;31.07;;
14698;SDS011;7439;50.804;4.602;2023-12-20T13:08:15;31.87;;;30.37;;
14698;SDS011;7439;50.804;4.602;2023-12-20T13:10:43;37.00;;;35.23;;
14698;SDS011;7439;50.804;4.602;2023-12-20T13:13:10;39.70;;;37.90;;
14698;SDS011;7439;50.804;4.602;2023-12-20T13:15:37;40.03;;;38.33;;
14698;SDS011;7439;50.804;4.602;2023-12-20T13:18:05;34.37;;;32.77;;
14698;SDS011;7439;50.804;4.602;2023-12-20T13:20:36;36.53;;;34.97;;
14698;SDS011;7439;50.804;4.602;2023-12-20T13:23:05;33.03;;;31.63;;
14698;SDS011;7439;50.804;4.602;2023-12-20T13:25:32;32.43;;;30.93;;
14698;SDS011;7439;50.804;4.602;2023-12-20T13:28:02;36.40;;;34.80;;
14698;SDS011;7439;50.804;4.602;2023-12-20T13:30:29;30.90;;;29.50;;
14698;SDS011;7439;50.804;4.602;2023-12-20T13:32:56;34.13;;;32.73;;
14698;SDS011;7439;50.804;4.602;2023-12-20T13:35:24;34.77;;;33.30;;
14698;SDS011;7439;50.804;4.602;2023-12-20T13:37:52;39.60;;;37.77;;
14698;SDS011;7439;50.804;4.602;2023-12-20T13:40:21;39.17;;;37.47;;
14698;SDS011;7439;50.804;4.602;2023-12-20T13:42:49;39.60;;;37.90;;
14698;SDS011;7439;50.804;4.602;2023-12-20T13:45:16;38.13;;;36.53;;
14698;SDS011;7439;50.804;4.602;2023-12-20T13:47:43;37.27;;;35.67;;
14698;SDS011;7439;50.804;4.602;2023-12-20T13:50:11;37.20;;;35.63;;
14698;SDS011;7439;50.804;4.602;2023-12-20T13:52:39;44.93;;;42.93;;
14698;SDS011;7439;50.804;4.602;2023-12-20T13:55:08;48.90;;;46.83;;
14698;SDS011;7439;50.804;4.602;2023-12-20T13:57:36;50.97;;;48.80;;
14698;SDS011;7439;50.804;4.602;2023-12-20T14:00:07;53.87;;;51.47;;
14698;SDS011;7439;50.804;4.602;2023-12-20T14:02:39;51.17;;;48.97;;
14698;SDS011;7439;50.804;4.602;2023-12-20T14:05:07;54.17;;;51.83;;
14698;SDS011;7439;50.804;4.602;2023-12-20T14:07:35;57.17;;;54.77;;
14698;SDS011;7439;50.804;4.602;2023-12-20T14:10:03;59.23;;;56.73;;
14698;SDS011;7439;50.804;4.602;2023-12-20T14:12:32;67.17;;;64.27;;
14698;SDS011;7439;50.804;4.602;2023-12-20T14:15:01;65.77;;;62.97;;
14698;SDS011;7439;50.804;4.602;2023-12-20T14:17:28;70.63;;;67.53;;
14698;SDS011;7439;50.804;4.602;2023-12-20T14:19:57;72.97;;;69.77;;
14698;SDS011;7439;50.804;4.602;2023-12-20T14:22:24;67.60;;;64.60;;
14698;SDS011;7439;50.804;4.602;2023-12-20T14:24:54;72.27;;;69.27;;
14698;SDS011;7439;50.804;4.602;2023-12-20T14:27:22;76.77;;;73.57;;
14698;SDS011;7439;50.804;4.602;2023-12-20T14:29:54;76.27;;;73.07;;
14698;SDS011;7439;50.804;4.602;2023-12-20T14:32:21;89.57;;;85.83;;
14698;SDS011;7439;50.804;4.602;2023-12-20T14:34:49;87.30;;;83.50;;
14698;SDS011;7439;50.804;4.602;2023-12-20T14:37:16;93.30;;;89.60;;
14698;SDS011;7439;50.804;4.602;2023-12-20T14:39:44;102.30;;;98.30;;
14698;SDS011;7439;50.804;4.602;2023-12-20T14:42:11;111.37;;;106.87;;
14698;SDS011;7439;50.804;4.602;2023-12-20T14:44:39;115.53;;;111.00;;
14698;SDS011;7439;50.804;4.602;2023-12-20T14:47:08;111.60;;;107.20;;
14698;SDS011;7439;50.804;4.602;2023-12-20T14:49:55;113.40;;;108.90;;
14698;SDS011;7439;50.804;4.602;2023-12-20T14:52:22;116.03;;;111.40;;